createdAt,value
2022-10-26T00:00:23.639Z,12.31
2022-10-26T00:02:26.461Z,12.19
2022-10-26T00:04:29.090Z,12.02
2022-10-26T00:06:31.692Z,12.09
2022-10-26T00:08:34.685Z,12.00
2022-10-26T00:10:39.859Z,12.05
2022-10-26T00:12:42.440Z,12.08
2022-10-26T00:14:45.062Z,12.06
2022-10-26T00:16:47.657Z,12.03
2022-10-26T00:18:50.699Z,12.03
2022-10-26T00:20:53.352Z,12.05
2022-10-26T00:22:55.977Z,12.00
2022-10-26T00:24:58.564Z,12.08
2022-10-26T00:27:02.471Z,12.00
2022-10-26T00:29:05.480Z,12.05
2022-10-26T00:31:12.699Z,12.07
2022-10-26T00:33:15.395Z,12.18
2022-10-26T00:35:28.854Z,12.12
2022-10-26T00:37:40.630Z,12.09
2022-10-26T00:39:43.240Z,12.10
2022-10-26T00:41:46.014Z,12.12
2022-10-26T00:43:50.958Z,12.13
2022-10-26T00:45:56.398Z,12.16
2022-10-26T00:48:02.636Z,12.27
2022-10-26T00:50:10.188Z,12.21
2022-10-26T00:52:13.389Z,12.18
2022-10-26T00:54:18.961Z,12.22
2022-10-26T00:56:22.004Z,12.32
2022-10-26T00:58:26.000Z,12.31
2022-10-26T01:00:29.911Z,12.34
2022-10-26T01:02:32.545Z,12.33
2022-10-26T01:04:35.487Z,12.36
2022-10-26T01:06:39.245Z,12.37
2022-10-26T01:08:43.966Z,12.61
2022-10-26T01:10:46.770Z,12.51
2022-10-26T01:12:50.123Z,12.48
2022-10-26T01:14:53.022Z,12.49
2022-10-26T01:17:07.136Z,12.51
2022-10-26T01:19:31.987Z,12.51
2022-10-26T01:21:52.584Z,12.60
2022-10-26T01:24:30.774Z,12.67
2022-10-26T01:26:48.174Z,12.57
2022-10-26T01:29:15.435Z,12.51
2022-10-26T01:31:29.402Z,12.53
2022-10-26T01:33:38.871Z,12.52
2022-10-26T01:35:51.124Z,12.50
2022-10-26T01:37:58.899Z,12.56
2022-10-26T01:40:09.993Z,12.57
2022-10-26T01:42:16.395Z,12.60
2022-10-26T01:44:25.898Z,12.55
2022-10-26T01:46:36.049Z,12.59
2022-10-26T01:48:40.859Z,12.68
2022-10-26T01:50:46.237Z,12.63
2022-10-26T01:52:50.556Z,12.54
2022-10-26T01:54:53.285Z,12.59
2022-10-26T01:57:01.038Z,12.47
2022-10-26T01:59:20.328Z,12.45
2022-10-26T02:01:42.541Z,12.50
2022-10-26T02:03:51.814Z,12.44
2022-10-26T02:06:07.429Z,12.44
2022-10-26T02:08:27.513Z,12.50
2022-10-26T02:10:39.336Z,12.45
2022-10-26T02:12:50.265Z,12.43
2022-10-26T02:15:01.769Z,12.43
2022-10-26T02:17:09.856Z,12.33
2022-10-26T02:19:27.122Z,12.44
2022-10-26T02:21:36.750Z,12.37
2022-10-26T02:23:43.206Z,12.53
2022-10-26T02:25:50.027Z,12.41
2022-10-26T02:27:56.694Z,12.21
2022-10-26T02:30:00.176Z,12.10
2022-10-26T02:32:03.805Z,11.89
2022-10-26T02:34:12.183Z,11.72
2022-10-26T02:36:19.956Z,11.68
2022-10-26T02:38:25.373Z,11.68
2022-10-26T02:40:30.203Z,11.73
2022-10-26T02:42:34.293Z,11.90
2022-10-26T02:44:41.138Z,11.95
2022-10-26T02:46:44.891Z,11.98
2022-10-26T02:48:47.744Z,12.08
2022-10-26T02:51:01.807Z,12.02
2022-10-26T02:53:11.532Z,12.02
2022-10-26T02:55:19.971Z,12.06
2022-10-26T02:57:28.745Z,12.03
2022-10-26T02:59:36.299Z,12.19
2022-10-26T03:01:40.037Z,12.03
2022-10-26T03:03:42.810Z,12.08
2022-10-26T03:05:45.485Z,12.10
2022-10-26T03:07:49.645Z,12.04
2022-10-26T03:09:52.674Z,11.98
2022-10-26T03:11:55.402Z,11.98
2022-10-26T03:13:58.243Z,11.98
2022-10-26T03:16:00.842Z,11.95
2022-10-26T03:18:03.560Z,11.98
2022-10-26T03:20:07.226Z,11.99
2022-10-26T03:22:09.866Z,12.04
2022-10-26T03:24:13.811Z,12.01
2022-10-26T03:26:16.438Z,12.00
2022-10-26T03:28:19.045Z,12.05
2022-10-26T03:30:21.664Z,11.96
2022-10-26T03:32:28.083Z,12.11
2022-10-26T03:34:31.283Z,12.03
2022-10-26T03:36:34.006Z,12.11
2022-10-26T03:38:36.632Z,12.20
2022-10-26T03:40:42.151Z,12.34
2022-10-26T03:42:44.724Z,12.42
2022-10-26T03:44:48.277Z,12.50
2022-10-26T03:46:50.921Z,12.59
2022-10-26T03:48:53.597Z,12.68
2022-10-26T03:50:59.253Z,12.72
2022-10-26T03:53:01.831Z,12.77
2022-10-26T03:55:04.779Z,12.81
2022-10-26T03:57:08.727Z,12.70
2022-10-26T03:59:11.320Z,12.67
2022-10-26T04:01:13.977Z,12.77
2022-10-26T04:03:16.732Z,12.85
2022-10-26T04:05:19.341Z,12.98
2022-10-26T04:07:21.965Z,13.05
2022-10-26T04:09:24.736Z,13.09
2022-10-26T04:11:27.339Z,13.07
2022-10-26T04:13:31.298Z,12.99
2022-10-26T04:15:33.911Z,13.00
2022-10-26T04:17:36.512Z,13.03
2022-10-26T04:19:39.117Z,13.09
2022-10-26T04:21:41.748Z,13.09
2022-10-26T04:23:44.396Z,13.12
2022-10-26T04:25:47.778Z,13.06
2022-10-26T04:27:50.645Z,12.89
2022-10-26T04:29:54.836Z,12.73
2022-10-26T04:31:57.426Z,12.76
2022-10-26T04:34:00.035Z,12.78
2022-10-26T04:36:02.747Z,12.76
2022-10-26T04:38:07.124Z,12.77
2022-10-26T04:40:10.605Z,12.63
2022-10-26T04:42:13.175Z,12.57
2022-10-26T04:44:15.829Z,12.63
2022-10-26T04:46:19.786Z,12.77
2022-10-26T04:48:22.470Z,12.73
2022-10-26T04:50:27.651Z,12.66
2022-10-26T04:52:31.029Z,12.67
2022-10-26T04:54:33.608Z,12.68
2022-10-26T04:56:36.275Z,12.67
2022-10-26T04:58:39.017Z,12.64
2022-10-26T05:00:41.626Z,12.60
2022-10-26T05:02:45.599Z,12.64
2022-10-26T05:04:48.866Z,12.68
2022-10-26T05:06:53.647Z,12.76
2022-10-26T05:08:56.250Z,12.79
2022-10-26T05:10:58.928Z,12.78
2022-10-26T05:13:02.138Z,12.79
2022-10-26T05:15:07.843Z,12.84
2022-10-26T05:17:11.150Z,12.76
2022-10-26T05:19:15.097Z,12.79
2022-10-26T05:21:19.614Z,12.70
2022-10-26T05:23:22.761Z,12.67
2022-10-26T05:25:25.461Z,12.72
2022-10-26T05:27:28.083Z,12.82
2022-10-26T05:29:30.722Z,12.82
2022-10-26T05:31:33.379Z,12.83
2022-10-26T05:33:35.997Z,12.88
2022-10-26T05:35:40.461Z,13.01
2022-10-26T05:37:43.041Z,12.95
2022-10-26T05:39:45.817Z,13.01
2022-10-26T05:41:48.528Z,12.98
2022-10-26T05:43:51.207Z,13.01
2022-10-26T05:45:55.130Z,13.10
2022-10-26T05:48:00.183Z,13.17
2022-10-26T05:50:06.097Z,13.27
2022-10-26T05:52:10.064Z,13.24
2022-10-26T05:54:14.066Z,13.23
2022-10-26T05:56:21.599Z,13.23
2022-10-26T05:58:25.274Z,13.25
2022-10-26T06:00:30.417Z,13.30
2022-10-26T06:02:40.254Z,13.29
2022-10-26T06:04:48.046Z,13.26
2022-10-26T06:06:55.324Z,13.28
2022-10-26T06:09:00.024Z,13.31
2022-10-26T06:11:03.311Z,13.40
2022-10-26T06:13:06.571Z,13.42
2022-10-26T06:15:17.274Z,13.39
2022-10-26T06:17:37.055Z,13.37
2022-10-26T06:19:56.316Z,13.36
2022-10-26T06:22:13.214Z,13.38
2022-10-26T06:24:24.533Z,13.47
2022-10-26T06:26:39.760Z,13.45
2022-10-26T06:28:51.193Z,13.44
2022-10-26T06:30:53.915Z,13.47
2022-10-26T06:33:06.001Z,13.45
2022-10-26T06:35:29.163Z,13.45
2022-10-26T06:37:31.840Z,13.48
2022-10-26T06:39:41.008Z,13.41
2022-10-26T06:41:44.306Z,13.49
2022-10-26T06:43:47.694Z,13.53
2022-10-26T06:45:56.061Z,13.51
2022-10-26T06:48:03.361Z,13.40
2022-10-26T06:50:16.414Z,13.51
2022-10-26T06:52:26.400Z,13.50
2022-10-26T06:54:46.716Z,13.56
2022-10-26T06:56:53.271Z,13.61
2022-10-26T06:58:57.174Z,13.66
2022-10-26T07:01:00.128Z,13.74
2022-10-26T07:03:02.827Z,13.82
2022-10-26T07:05:10.090Z,13.82
2022-10-26T07:07:16.565Z,13.85
2022-10-26T07:09:19.515Z,13.89
2022-10-26T07:11:22.346Z,14.02
2022-10-26T07:13:26.532Z,14.01
2022-10-26T07:15:29.150Z,14.11
2022-10-26T07:17:31.956Z,14.25
2022-10-26T07:19:34.594Z,14.38
2022-10-26T07:21:37.234Z,14.47
2022-10-26T07:23:39.866Z,14.48
2022-10-26T07:25:42.706Z,14.54
2022-10-26T07:27:45.380Z,14.56
2022-10-26T07:29:49.347Z,14.57
2022-10-26T07:33:59.929Z,14.71
2022-10-26T07:36:02.825Z,14.75
2022-10-26T07:38:06.112Z,14.80
2022-10-26T07:40:09.673Z,14.77
2022-10-26T07:42:12.406Z,14.68
2022-10-26T07:44:15.106Z,14.73
2022-10-26T07:46:19.332Z,14.82
2022-10-26T07:48:22.096Z,14.85
2022-10-26T07:50:25.172Z,14.86
2022-10-26T07:52:27.896Z,14.82
2022-10-26T07:54:30.935Z,14.79
2022-10-26T07:56:33.621Z,14.86
2022-10-26T07:58:36.407Z,14.90
2022-10-26T08:00:39.114Z,14.92
2022-10-26T08:02:43.170Z,14.92
2022-10-26T08:04:45.828Z,14.91
2022-10-26T08:06:48.799Z,15.03
2022-10-26T08:08:51.771Z,15.07
2022-10-26T08:10:54.484Z,15.10
2022-10-26T08:12:57.165Z,15.08
2022-10-26T08:14:59.833Z,15.05
2022-10-26T08:17:02.540Z,15.03
2022-10-26T08:19:06.638Z,15.03
2022-10-26T08:21:15.560Z,15.04
2022-10-26T08:23:23.983Z,15.09
2022-10-26T08:25:27.041Z,15.06
2022-10-26T08:27:29.883Z,15.10
2022-10-26T08:29:32.596Z,15.27
2022-10-26T08:31:35.502Z,15.09
2022-10-26T08:33:38.636Z,15.14
2022-10-26T08:35:43.290Z,15.12
2022-10-26T08:37:45.950Z,15.19
2022-10-26T08:39:51.922Z,15.10
2022-10-26T08:42:04.210Z,15.18
2022-10-26T08:44:20.686Z,15.16
2022-10-26T08:46:29.139Z,15.14
2022-10-26T08:48:34.992Z,15.17
2022-10-26T08:50:42.968Z,15.16
2022-10-26T08:52:52.000Z,15.15
2022-10-26T08:54:56.955Z,15.20
2022-10-26T08:57:01.922Z,15.15
2022-10-26T08:59:14.654Z,15.20
2022-10-26T09:01:18.484Z,15.20
2022-10-26T09:03:21.277Z,15.30
2022-10-26T09:05:33.464Z,15.35
2022-10-26T09:07:51.856Z,15.41
2022-10-26T09:10:05.372Z,15.52
2022-10-26T09:12:14.609Z,15.85
2022-10-26T09:14:20.870Z,15.97
2022-10-26T09:16:29.849Z,16.07
2022-10-26T09:20:59.736Z,16.54
2022-10-26T09:23:06.428Z,16.18
2022-10-26T09:25:19.250Z,16.33
2022-10-26T09:27:27.859Z,16.49
2022-10-26T09:29:35.573Z,16.36
2022-10-26T09:31:43.426Z,16.38
2022-10-26T09:33:46.452Z,17.30
2022-10-26T09:35:52.576Z,18.56
2022-10-26T09:37:59.216Z,19.00
2022-10-26T09:40:12.654Z,18.24
2022-10-26T09:42:20.175Z,17.98
2022-10-26T09:44:28.826Z,18.97
2022-10-26T09:46:35.995Z,18.99
2022-10-26T09:48:43.700Z,18.60
2022-10-26T09:50:49.636Z,17.98
2022-10-26T09:52:52.335Z,18.54
2022-10-26T09:54:55.250Z,17.80
2022-10-26T09:57:02.068Z,17.74
2022-10-26T09:59:06.964Z,17.96
2022-10-26T10:01:22.498Z,17.94
2022-10-26T10:03:28.004Z,17.77
2022-10-26T10:05:50.824Z,18.01
2022-10-26T10:08:11.970Z,17.99
2022-10-26T10:10:18.162Z,17.91
2022-10-26T10:12:22.701Z,17.77
2022-10-26T10:14:27.287Z,17.78
2022-10-26T10:16:29.943Z,17.83
2022-10-26T10:18:33.287Z,17.86
2022-10-26T10:20:35.985Z,17.99
2022-10-26T10:22:53.528Z,18.02
2022-10-26T10:24:57.920Z,18.05
2022-10-26T10:27:03.483Z,18.17
2022-10-26T10:29:17.334Z,18.11
2022-10-26T10:31:22.077Z,18.31
2022-10-26T10:33:34.394Z,18.37
2022-10-26T10:35:37.399Z,18.43
2022-10-26T10:37:44.124Z,19.03
2022-10-26T10:39:46.819Z,19.05
2022-10-26T10:41:49.611Z,18.98
2022-10-26T10:43:56.185Z,19.31
2022-10-26T10:46:00.923Z,19.70
2022-10-26T10:48:05.964Z,19.52
2022-10-26T10:50:19.610Z,19.38
2022-10-26T10:52:31.177Z,19.58
2022-10-26T10:54:37.063Z,19.68
2022-10-26T10:56:42.998Z,19.70
2022-10-26T10:58:53.991Z,19.63
2022-10-26T11:00:58.562Z,19.67
2022-10-26T11:03:16.716Z,19.70
2022-10-26T11:05:27.754Z,19.85
2022-10-26T11:07:33.654Z,19.37
2022-10-26T11:09:41.215Z,19.91
2022-10-26T11:11:49.807Z,19.95
2022-10-26T11:13:56.221Z,20.13
2022-10-26T11:16:02.750Z,20.21
2022-10-26T11:18:13.500Z,20.24
2022-10-26T11:20:19.972Z,19.90
2022-10-26T11:22:27.375Z,19.59
2022-10-26T11:24:35.182Z,19.61
2022-10-26T11:26:46.051Z,19.51
2022-10-26T11:28:52.813Z,19.62
2022-10-26T11:31:00.128Z,19.54
2022-10-26T11:33:07.835Z,19.47
2022-10-26T11:35:19.020Z,19.63
2022-10-26T11:37:28.887Z,19.83
2022-10-26T11:39:39.773Z,20.06
2022-10-26T11:41:49.428Z,20.14
2022-10-26T11:43:58.295Z,19.86
2022-10-26T11:46:06.996Z,19.67
2022-10-26T11:48:17.902Z,19.73
2022-10-26T11:50:23.795Z,20.14
2022-10-26T11:52:31.436Z,19.76
2022-10-26T11:54:38.545Z,19.99
2022-10-26T11:56:45.268Z,20.18
2022-10-26T11:58:48.262Z,20.17
2022-10-26T12:00:54.447Z,20.30
2022-10-26T12:03:01.486Z,20.33
2022-10-26T12:05:12.303Z,20.75
2022-10-26T12:07:21.523Z,21.00
2022-10-26T12:09:29.980Z,20.79
2022-10-26T12:11:42.440Z,20.87
2022-10-26T12:13:51.811Z,20.46
2022-10-26T12:16:03.917Z,20.26
2022-10-26T12:18:16.130Z,20.23
2022-10-26T12:20:51.801Z,20.46
2022-10-26T12:22:54.725Z,20.25
2022-10-26T12:25:13.925Z,20.14
2022-10-26T12:27:51.117Z,19.85
2022-10-26T12:30:24.361Z,20.11
2022-10-26T12:32:53.680Z,19.82
2022-10-26T12:35:02.675Z,19.80
2022-10-26T12:37:24.427Z,19.83
2022-10-26T12:39:32.109Z,19.81
2022-10-26T12:41:39.170Z,19.87
2022-10-26T12:43:42.595Z,20.03
2022-10-26T12:45:46.766Z,19.90
2022-10-26T12:48:10.679Z,19.74
2022-10-26T12:50:25.126Z,19.78
2022-10-26T12:52:40.077Z,20.15
2022-10-26T12:54:55.862Z,20.34
2022-10-26T12:57:09.726Z,20.46
2022-10-26T12:59:27.720Z,20.28
2022-10-26T13:02:14.441Z,20.30
2022-10-26T13:04:50.218Z,20.39
2022-10-26T13:07:19.108Z,20.33
2022-10-26T13:09:26.450Z,20.73
2022-10-26T13:11:32.625Z,20.74
2022-10-26T13:13:36.729Z,20.56
2022-10-26T13:15:41.356Z,20.65
2022-10-26T13:17:53.835Z,20.41
2022-10-26T13:19:58.595Z,20.50
2022-10-26T13:22:01.575Z,21.16
2022-10-26T13:24:07.845Z,21.45
2022-10-26T13:26:12.859Z,21.79
2022-10-26T13:28:32.712Z,21.56
2022-10-26T13:30:47.360Z,21.62
2022-10-26T13:32:53.141Z,21.74
2022-10-26T13:34:57.795Z,21.99
2022-10-26T13:37:18.627Z,21.20
2022-10-26T13:39:25.173Z,21.46
2022-10-26T13:41:35.587Z,21.14
2022-10-26T13:43:38.824Z,21.31
2022-10-26T13:45:51.507Z,21.26
2022-10-26T13:47:59.968Z,21.45
2022-10-26T13:50:08.291Z,21.44
2022-10-26T13:52:17.921Z,21.59
2022-10-26T13:54:26.430Z,21.28
2022-10-26T13:56:34.403Z,21.24
2022-10-26T13:58:43.988Z,21.40
2022-10-26T14:01:12.977Z,21.32
2022-10-26T14:03:21.218Z,21.10
2022-10-26T14:05:24.865Z,21.19
2022-10-26T14:07:35.213Z,20.58
2022-10-26T14:09:37.876Z,20.58
2022-10-26T14:11:49.471Z,21.08
2022-10-26T14:13:52.950Z,21.27
2022-10-26T14:15:58.046Z,21.12
2022-10-26T14:18:02.727Z,21.28
2022-10-26T14:20:06.210Z,21.36
2022-10-26T14:22:09.008Z,21.49
2022-10-26T14:24:27.514Z,21.24
2022-10-26T14:26:40.442Z,21.23
2022-10-26T14:28:51.522Z,21.10
2022-10-26T14:30:54.528Z,20.96
2022-10-26T14:32:57.880Z,20.91
2022-10-26T14:35:00.735Z,20.69
2022-10-26T14:37:05.852Z,20.68
2022-10-26T14:39:16.161Z,20.67
2022-10-26T14:41:19.134Z,20.62
2022-10-26T14:43:24.637Z,20.56
2022-10-26T14:45:48.049Z,20.60
2022-10-26T14:47:51.644Z,20.22
2022-10-26T14:49:54.744Z,20.01
2022-10-26T14:51:58.931Z,20.17
2022-10-26T14:54:02.838Z,19.97
2022-10-26T14:56:07.358Z,19.93
2022-10-26T14:58:18.106Z,19.77
2022-10-26T15:00:22.540Z,19.79
2022-10-26T15:02:26.970Z,19.67
2022-10-26T15:04:32.697Z,19.69
2022-10-26T15:06:42.326Z,19.67
2022-10-26T15:08:55.845Z,19.71
2022-10-26T15:11:07.634Z,19.61
2022-10-26T15:13:10.613Z,19.79
2022-10-26T15:17:32.006Z,19.71
2022-10-26T15:19:35.962Z,19.74
2022-10-26T15:21:41.049Z,19.71
2022-10-26T15:23:43.721Z,19.72
2022-10-26T15:25:53.423Z,19.52
2022-10-26T15:27:56.184Z,19.49
2022-10-26T15:30:16.031Z,19.53
2022-10-26T15:32:37.913Z,19.33
2022-10-26T15:34:40.617Z,19.28
2022-10-26T15:36:44.368Z,19.13
2022-10-26T15:38:48.501Z,18.99
2022-10-26T15:40:51.183Z,19.24
2022-10-26T15:42:55.216Z,19.14
2022-10-26T15:44:58.753Z,18.98
2022-10-26T15:47:07.794Z,18.87
2022-10-26T15:49:18.362Z,18.82
2022-10-26T15:51:21.011Z,18.83
2022-10-26T15:53:27.419Z,18.80
2022-10-26T15:55:30.882Z,18.69
2022-10-26T15:57:33.535Z,18.52
2022-10-26T15:59:36.138Z,18.48
2022-10-26T16:01:38.812Z,18.33
2022-10-26T16:03:41.476Z,18.03
2022-10-26T16:05:45.878Z,17.73
2022-10-26T16:07:49.610Z,17.51
2022-10-26T16:09:52.527Z,17.35
2022-10-26T16:11:55.141Z,17.19
2022-10-26T16:14:01.036Z,17.29
2022-10-26T16:16:12.294Z,17.30
2022-10-26T16:18:15.601Z,17.28
2022-10-26T16:20:20.295Z,17.22
2022-10-26T16:22:24.611Z,17.20
2022-10-26T16:24:27.628Z,17.14
2022-10-26T16:26:30.263Z,17.09
2022-10-26T16:28:33.394Z,16.96
2022-10-26T16:30:36.872Z,16.88
2022-10-26T16:32:39.884Z,16.88
2022-10-26T16:34:42.508Z,16.84
2022-10-26T16:36:45.921Z,16.80
2022-10-26T16:38:50.088Z,16.78
2022-10-26T16:41:00.958Z,16.75
2022-10-26T16:43:03.956Z,16.72
2022-10-26T16:45:07.432Z,16.68
2022-10-26T16:47:10.168Z,16.65
2022-10-26T16:49:12.790Z,16.63
2022-10-26T16:51:17.396Z,16.55
2022-10-26T16:53:20.103Z,16.50
2022-10-26T16:55:24.516Z,16.39
2022-10-26T16:57:27.328Z,16.34
2022-10-26T16:59:30.257Z,16.27
2022-10-26T17:01:33.484Z,16.30
2022-10-26T17:03:36.198Z,16.30
2022-10-26T17:05:38.922Z,16.32
2022-10-26T17:07:41.557Z,16.33
2022-10-26T17:09:44.275Z,16.40
2022-10-26T17:11:48.268Z,16.36
2022-10-26T17:13:54.952Z,16.38
2022-10-26T17:16:02.418Z,16.30
2022-10-26T17:18:05.363Z,16.32
2022-10-26T17:20:09.208Z,16.40
2022-10-26T17:22:11.832Z,16.38
2022-10-26T17:24:14.525Z,16.35
2022-10-26T17:26:17.248Z,16.30
2022-10-26T17:28:21.298Z,16.31
2022-10-26T17:30:23.933Z,16.29
2022-10-26T17:32:26.538Z,16.26
2022-10-26T17:34:29.156Z,16.22
2022-10-26T17:36:31.836Z,16.09
2022-10-26T17:38:36.422Z,16.12
2022-10-26T17:40:39.043Z,16.03
2022-10-26T17:42:41.659Z,16.08
2022-10-26T17:44:45.604Z,16.05
2022-10-26T17:46:48.247Z,16.04
2022-10-26T17:48:54.699Z,15.96
2022-10-26T17:50:59.215Z,15.92
2022-10-26T17:53:01.799Z,15.70
2022-10-26T17:55:04.951Z,15.74
2022-10-26T17:57:07.538Z,15.73
2022-10-26T17:59:13.283Z,15.70
2022-10-26T18:01:17.291Z,15.56
2022-10-26T18:03:19.961Z,15.53
2022-10-26T18:05:22.607Z,15.49
2022-10-26T18:07:25.266Z,15.48
2022-10-26T18:09:27.857Z,15.43
2022-10-26T18:13:35.182Z,15.39
2022-10-26T18:15:37.893Z,15.34
2022-10-26T18:17:42.144Z,15.17
2022-10-26T18:19:44.834Z,15.10
2022-10-26T18:21:47.497Z,15.11
2022-10-26T18:23:50.123Z,15.17
2022-10-26T18:26:01.132Z,15.05
2022-10-26T18:28:04.443Z,15.08
2022-10-26T18:30:08.576Z,15.01
2022-10-26T18:32:11.179Z,14.99
2022-10-26T18:34:15.136Z,15.03
2022-10-26T18:36:19.329Z,15.11
2022-10-26T18:38:21.894Z,15.11
2022-10-26T18:40:24.489Z,15.08
2022-10-26T18:42:27.362Z,15.09
2022-10-26T18:44:29.948Z,15.09
2022-10-26T18:46:35.402Z,15.11
2022-10-26T18:48:38.412Z,14.94
2022-10-26T18:50:42.462Z,14.96
2022-10-26T18:52:45.670Z,14.89
2022-10-26T18:54:48.237Z,14.98
2022-10-26T18:56:50.901Z,15.00
2022-10-26T18:58:55.905Z,15.03
2022-10-26T19:01:07.108Z,15.11
2022-10-26T19:03:10.822Z,15.04
2022-10-26T19:05:13.479Z,15.09
2022-10-26T19:07:17.876Z,15.12
2022-10-26T19:09:20.886Z,15.13
2022-10-26T19:11:25.620Z,15.18
2022-10-26T19:13:28.220Z,15.18
2022-10-26T19:15:30.840Z,15.21
2022-10-26T19:17:33.482Z,15.33
2022-10-26T19:19:36.064Z,15.31
2022-10-26T19:21:38.725Z,15.36
2022-10-26T19:23:45.058Z,15.34
2022-10-26T19:25:47.622Z,15.31
2022-10-26T19:27:51.546Z,15.30
2022-10-26T19:29:54.438Z,15.32
2022-10-26T19:31:57.049Z,15.26
2022-10-26T19:34:00.119Z,15.27
2022-10-26T19:36:04.379Z,15.24
2022-10-26T19:38:06.991Z,15.22
2022-10-26T19:40:12.114Z,14.97
2022-10-26T19:42:15.512Z,15.07
2022-10-26T19:44:23.122Z,14.90
2022-10-26T19:46:29.662Z,14.79
2022-10-26T19:48:33.109Z,14.71
2022-10-26T19:50:35.746Z,14.68
2022-10-26T19:52:38.377Z,14.45
2022-10-26T19:54:40.986Z,14.24
2022-10-26T19:56:44.972Z,14.23
2022-10-26T19:58:50.522Z,14.14
2022-10-26T20:03:04.839Z,14.10
2022-10-26T20:05:07.820Z,14.11
2022-10-26T20:07:10.447Z,14.08
2022-10-26T20:09:13.098Z,14.09
2022-10-26T20:11:17.099Z,13.92
2022-10-26T20:13:21.273Z,13.99
2022-10-26T20:15:24.102Z,14.00
2022-10-26T20:17:28.532Z,14.35
2022-10-26T20:19:31.376Z,14.08
2022-10-26T20:21:34.050Z,14.07
2022-10-26T20:23:36.690Z,14.14
2022-10-26T20:25:40.881Z,13.97
2022-10-26T20:27:43.497Z,13.75
2022-10-26T20:29:47.570Z,13.80
2022-10-26T20:31:55.135Z,13.87
2022-10-26T20:33:58.585Z,13.97
2022-10-26T20:36:01.755Z,13.98
2022-10-26T20:38:05.404Z,13.85
2022-10-26T20:40:11.859Z,13.81
2022-10-26T20:42:23.410Z,13.71
2022-10-26T20:44:30.093Z,13.70
2022-10-26T20:46:34.779Z,13.72
2022-10-26T20:48:38.504Z,13.72
2022-10-26T20:50:42.265Z,13.75
2022-10-26T20:52:49.854Z,13.76
2022-10-26T20:54:59.895Z,13.78
2022-10-26T20:57:03.884Z,13.73
2022-10-26T20:59:13.024Z,13.75
2022-10-26T21:01:22.254Z,13.75
2022-10-26T21:03:26.601Z,13.67
2022-10-26T21:05:33.952Z,13.71
2022-10-26T21:07:37.445Z,13.65
2022-10-26T21:09:40.052Z,13.67
2022-10-26T21:11:42.693Z,13.92
2022-10-26T21:13:47.198Z,14.04
2022-10-26T21:15:50.124Z,14.14
2022-10-26T21:17:53.334Z,14.27
2022-10-26T21:19:57.327Z,14.09
2022-10-26T21:22:00.204Z,13.95
2022-10-26T21:24:02.807Z,13.90
2022-10-26T21:26:05.945Z,13.81
2022-10-26T21:28:08.564Z,13.78
2022-10-26T21:30:12.393Z,13.70
2022-10-26T21:32:14.944Z,13.61
2022-10-26T21:34:17.525Z,13.60
2022-10-26T21:36:22.017Z,13.61
2022-10-26T21:38:24.617Z,13.51
2022-10-26T21:40:27.272Z,13.29
2022-10-26T21:42:30.004Z,13.52
2022-10-26T21:44:40.819Z,13.43
2022-10-26T21:46:44.322Z,13.30
2022-10-26T21:48:47.831Z,13.32
2022-10-26T21:50:50.378Z,13.50
2022-10-26T21:52:55.006Z,13.46
2022-10-26T21:54:57.607Z,13.47
2022-10-26T21:57:00.257Z,13.47
2022-10-26T21:59:02.845Z,13.41
2022-10-26T22:01:06.768Z,13.41
2022-10-26T22:03:09.449Z,13.40
2022-10-26T22:05:12.065Z,13.51
2022-10-26T22:07:14.744Z,13.32
2022-10-26T22:09:18.706Z,13.28
2022-10-26T22:11:23.915Z,13.23
2022-10-26T22:13:26.517Z,13.05
2022-10-26T22:15:29.104Z,13.15
2022-10-26T22:17:31.688Z,13.15
2022-10-26T22:19:34.597Z,13.13
2022-10-26T22:21:39.423Z,13.03
2022-10-26T22:23:43.672Z,13.06
2022-10-26T22:25:47.592Z,13.09
2022-10-26T22:27:50.334Z,13.07
2022-10-26T22:29:53.179Z,13.11
2022-10-26T22:31:55.740Z,13.09
2022-10-26T22:34:02.073Z,13.07
2022-10-26T22:36:09.246Z,13.02
2022-10-26T22:38:11.784Z,12.90
2022-10-26T22:40:14.515Z,12.99
2022-10-26T22:42:18.450Z,13.07
2022-10-26T22:44:21.024Z,12.94
2022-10-26T22:46:25.976Z,12.79
2022-10-26T22:48:29.028Z,12.84
2022-10-26T22:50:31.659Z,12.90
2022-10-26T22:52:34.980Z,12.97
2022-10-26T22:54:37.646Z,12.91
2022-10-26T22:56:40.506Z,13.02
2022-10-26T22:58:44.423Z,12.89
2022-10-26T23:00:47.033Z,12.93
2022-10-26T23:02:49.674Z,12.91
2022-10-26T23:04:52.261Z,12.88
2022-10-26T23:06:54.830Z,12.48
2022-10-26T23:08:57.566Z,12.73
2022-10-26T23:11:01.206Z,12.81
2022-10-26T23:15:12.959Z,12.80
2022-10-26T23:17:15.567Z,12.84
2022-10-26T23:19:18.181Z,12.83
2022-10-26T23:21:21.512Z,12.84
2022-10-26T23:23:24.177Z,12.82
2022-10-26T23:25:26.831Z,12.82
2022-10-26T23:27:29.424Z,12.86
2022-10-26T23:29:32.049Z,12.84
2022-10-26T23:31:36.044Z,12.86
2022-10-26T23:33:38.652Z,12.83
2022-10-26T23:35:41.488Z,12.46
2022-10-26T23:37:44.078Z,12.36
2022-10-26T23:39:46.716Z,12.47
2022-10-26T23:41:49.319Z,12.55
2022-10-26T23:43:52.177Z,12.55
2022-10-26T23:45:55.686Z,12.58
2022-10-26T23:47:59.643Z,12.50
2022-10-26T23:50:02.285Z,12.43
2022-10-26T23:52:05.041Z,12.53
2022-10-26T23:54:07.924Z,12.55
2022-10-26T23:56:10.509Z,12.51
2022-10-26T23:58:13.318Z,12.53
